sensor_id;sensor_type;location;lat;lon;timestamp;P1;durP1;ratioP1;P2;durP2;ratioP2
49502;SDS011;35409;48.776;9.204;2022-09-09T00:04:26;5.18;;;1.60;;
49502;SDS011;35409;48.776;9.204;2022-09-09T00:07:02;3.15;;;1.50;;
49502;SDS011;35409;48.776;9.204;2022-09-09T00:09:30;2.33;;;1.23;;
49502;SDS011;35409;48.776;9.204;2022-09-09T00:14:38;5.15;;;1.50;;
49502;SDS011;35409;48.776;9.204;2022-09-09T00:17:09;2.33;;;1.40;;
49502;SDS011;35409;48.776;9.204;2022-09-09T00:19:53;5.68;;;1.67;;
49502;SDS011;35409;48.776;9.204;2022-09-09T00:22:25;4.18;;;1.90;;
49502;SDS011;35409;48.776;9.204;2022-09-09T00:24:53;3.08;;;1.58;;
49502;SDS011;35409;48.776;9.204;2022-09-09T00:32:39;3.75;;;1.55;;
49502;SDS011;35409;48.776;9.204;2022-09-09T00:35:21;4.15;;;1.52;;
49502;SDS011;35409;48.776;9.204;2022-09-09T00:37:49;6.40;;;1.98;;
49502;SDS011;35409;48.776;9.204;2022-09-09T00:40:33;5.28;;;1.58;;
49502;SDS011;35409;48.776;9.204;2022-09-09T00:43:46;6.88;;;1.60;;
49502;SDS011;35409;48.776;9.204;2022-09-09T00:45:55;7.43;;;1.80;;
49502;SDS011;35409;48.776;9.204;2022-09-09T00:56:16;6.07;;;1.60;;
49502;SDS011;35409;48.776;9.204;2022-09-09T01:01:21;3.22;;;0.90;;
49502;SDS011;35409;48.776;9.204;2022-09-09T01:03:53;5.38;;;0.88;;
49502;SDS011;35409;48.776;9.204;2022-09-09T01:06:29;3.85;;;0.95;;
49502;SDS011;35409;48.776;9.204;2022-09-09T01:17:12;3.28;;;1.00;;
49502;SDS011;35409;48.776;9.204;2022-09-09T01:19:45;5.32;;;0.80;;
49502;SDS011;35409;48.776;9.204;2022-09-09T01:27:17;4.63;;;1.20;;
49502;SDS011;35409;48.776;9.204;2022-09-09T01:29:43;3.92;;;1.20;;
49502;SDS011;35409;48.776;9.204;2022-09-09T01:34:54;2.63;;;0.95;;
49502;SDS011;35409;48.776;9.204;2022-09-09T01:37:20;2.55;;;0.88;;
49502;SDS011;35409;48.776;9.204;2022-09-09T01:39:46;3.58;;;1.00;;
49502;SDS011;35409;48.776;9.204;2022-09-09T01:42:13;5.05;;;0.93;;
49502;SDS011;35409;48.776;9.204;2022-09-09T01:44:40;3.22;;;0.82;;
49502;SDS011;35409;48.776;9.204;2022-09-09T01:47:06;4.30;;;0.75;;
49502;SDS011;35409;48.776;9.204;2022-09-09T01:49:32;4.55;;;0.90;;
49502;SDS011;35409;48.776;9.204;2022-09-09T01:51:58;2.80;;;0.90;;
49502;SDS011;35409;48.776;9.204;2022-09-09T01:54:26;2.97;;;1.33;;
49502;SDS011;35409;48.776;9.204;2022-09-09T02:02:11;2.00;;;1.20;;
49502;SDS011;35409;48.776;9.204;2022-09-09T02:04:43;3.28;;;1.23;;
49502;SDS011;35409;48.776;9.204;2022-09-09T02:07:15;5.35;;;1.20;;
49502;SDS011;35409;48.776;9.204;2022-09-09T02:09:42;3.55;;;1.65;;
49502;SDS011;35409;48.776;9.204;2022-09-09T02:12:13;2.20;;;1.05;;
49502;SDS011;35409;48.776;9.204;2022-09-09T02:14:45;2.97;;;1.38;;
49502;SDS011;35409;48.776;9.204;2022-09-09T02:17:13;4.93;;;1.45;;
49502;SDS011;35409;48.776;9.204;2022-09-09T02:19:48;6.00;;;1.23;;
49502;SDS011;35409;48.776;9.204;2022-09-09T02:22:16;1.00;;;0.70;;
49502;SDS011;35409;48.776;9.204;2022-09-09T02:24:43;4.65;;;0.90;;
49502;SDS011;35409;48.776;9.204;2022-09-09T02:27:11;5.28;;;1.13;;
49502;SDS011;35409;48.776;9.204;2022-09-09T02:29:41;3.13;;;0.70;;
49502;SDS011;35409;48.776;9.204;2022-09-09T02:32:11;2.95;;;0.90;;
49502;SDS011;35409;48.776;9.204;2022-09-09T02:34:40;1.88;;;0.70;;
49502;SDS011;35409;48.776;9.204;2022-09-09T02:37:08;4.47;;;0.82;;
49502;SDS011;35409;48.776;9.204;2022-09-09T02:39:35;2.10;;;0.80;;
49502;SDS011;35409;48.776;9.204;2022-09-09T02:42:01;5.28;;;1.45;;
49502;SDS011;35409;48.776;9.204;2022-09-09T02:44:28;3.88;;;0.70;;
49502;SDS011;35409;48.776;9.204;2022-09-09T02:47:05;4.55;;;0.63;;
49502;SDS011;35409;48.776;9.204;2022-09-09T02:52:03;1.17;;;0.50;;
49502;SDS011;35409;48.776;9.204;2022-09-09T02:54:34;2.08;;;0.80;;
49502;SDS011;35409;48.776;9.204;2022-09-09T02:59:33;2.08;;;0.90;;
49502;SDS011;35409;48.776;9.204;2022-09-09T03:01:59;2.15;;;0.80;;
49502;SDS011;35409;48.776;9.204;2022-09-09T03:04:25;2.85;;;0.80;;
49502;SDS011;35409;48.776;9.204;2022-09-09T03:06:51;2.55;;;0.90;;
49502;SDS011;35409;48.776;9.204;2022-09-09T03:09:17;1.90;;;0.50;;
49502;SDS011;35409;48.776;9.204;2022-09-09T03:11:43;2.13;;;0.63;;
49502;SDS011;35409;48.776;9.204;2022-09-09T03:14:09;2.20;;;0.77;;
49502;SDS011;35409;48.776;9.204;2022-09-09T03:16:36;2.45;;;0.93;;
49502;SDS011;35409;48.776;9.204;2022-09-09T03:19:02;1.67;;;0.60;;
49502;SDS011;35409;48.776;9.204;2022-09-09T03:21:28;3.17;;;0.70;;
49502;SDS011;35409;48.776;9.204;2022-09-09T03:23:54;1.65;;;0.80;;
49502;SDS011;35409;48.776;9.204;2022-09-09T03:26:20;3.00;;;0.75;;
49502;SDS011;35409;48.776;9.204;2022-09-09T03:28:46;2.85;;;0.80;;
49502;SDS011;35409;48.776;9.204;2022-09-09T03:31:12;2.15;;;0.55;;
49502;SDS011;35409;48.776;9.204;2022-09-09T03:33:39;2.72;;;0.45;;
49502;SDS011;35409;48.776;9.204;2022-09-09T03:36:06;2.20;;;0.47;;
49502;SDS011;35409;48.776;9.204;2022-09-09T03:38:33;1.25;;;0.43;;
49502;SDS011;35409;48.776;9.204;2022-09-09T03:40:59;4.70;;;0.90;;
49502;SDS011;35409;48.776;9.204;2022-09-09T03:43:27;2.72;;;0.98;;
49502;SDS011;35409;48.776;9.204;2022-09-09T03:45:53;2.00;;;0.73;;
49502;SDS011;35409;48.776;9.204;2022-09-09T03:48:22;1.93;;;0.40;;
49502;SDS011;35409;48.776;9.204;2022-09-09T03:50:50;2.15;;;0.43;;
49502;SDS011;35409;48.776;9.204;2022-09-09T03:53:17;2.92;;;0.57;;
49502;SDS011;35409;48.776;9.204;2022-09-09T03:55:48;1.48;;;0.60;;
49502;SDS011;35409;48.776;9.204;2022-09-09T03:58:15;4.03;;;0.60;;
49502;SDS011;35409;48.776;9.204;2022-09-09T04:00:43;2.60;;;0.60;;
49502;SDS011;35409;48.776;9.204;2022-09-09T04:03:10;3.13;;;0.77;;
49502;SDS011;35409;48.776;9.204;2022-09-09T04:05:36;1.42;;;0.80;;
49502;SDS011;35409;48.776;9.204;2022-09-09T04:08:07;1.48;;;0.43;;
49502;SDS011;35409;48.776;9.204;2022-09-09T04:10:33;4.88;;;0.85;;
49502;SDS011;35409;48.776;9.204;2022-09-09T04:13:01;4.20;;;0.73;;
49502;SDS011;35409;48.776;9.204;2022-09-09T04:15:27;1.27;;;0.50;;
49502;SDS011;35409;48.776;9.204;2022-09-09T04:17:53;2.75;;;0.68;;
49502;SDS011;35409;48.776;9.204;2022-09-09T04:20:20;2.00;;;0.73;;
49502;SDS011;35409;48.776;9.204;2022-09-09T04:22:47;2.60;;;0.70;;
49502;SDS011;35409;48.776;9.204;2022-09-09T04:25:13;1.42;;;0.85;;
49502;SDS011;35409;48.776;9.204;2022-09-09T04:27:39;1.25;;;0.60;;
49502;SDS011;35409;48.776;9.204;2022-09-09T04:30:05;3.25;;;0.90;;
49502;SDS011;35409;48.776;9.204;2022-09-09T04:32:32;0.98;;;0.68;;
49502;SDS011;35409;48.776;9.204;2022-09-09T04:34:58;2.30;;;0.75;;
49502;SDS011;35409;48.776;9.204;2022-09-09T04:37:24;2.97;;;0.95;;
49502;SDS011;35409;48.776;9.204;2022-09-09T04:39:50;2.67;;;0.80;;
49502;SDS011;35409;48.776;9.204;2022-09-09T04:42:16;4.22;;;0.85;;
49502;SDS011;35409;48.776;9.204;2022-09-09T04:44:44;2.65;;;0.75;;
49502;SDS011;35409;48.776;9.204;2022-09-09T04:47:10;2.88;;;0.95;;
49502;SDS011;35409;48.776;9.204;2022-09-09T04:49:36;1.90;;;1.00;;
49502;SDS011;35409;48.776;9.204;2022-09-09T04:52:03;5.13;;;1.40;;
49502;SDS011;35409;48.776;9.204;2022-09-09T04:54:29;5.53;;;1.48;;
49502;SDS011;35409;48.776;9.204;2022-09-09T04:56:55;5.72;;;2.03;;
49502;SDS011;35409;48.776;9.204;2022-09-09T04:59:21;5.38;;;1.42;;
49502;SDS011;35409;48.776;9.204;2022-09-09T05:01:48;4.70;;;1.90;;
49502;SDS011;35409;48.776;9.204;2022-09-09T05:04:15;4.55;;;1.35;;
49502;SDS011;35409;48.776;9.204;2022-09-09T05:06:41;4.35;;;1.60;;
49502;SDS011;35409;48.776;9.204;2022-09-09T05:09:08;5.82;;;1.45;;
49502;SDS011;35409;48.776;9.204;2022-09-09T05:11:34;9.70;;;2.38;;
49502;SDS011;35409;48.776;9.204;2022-09-09T05:14:03;4.60;;;1.98;;
49502;SDS011;35409;48.776;9.204;2022-09-09T05:16:30;5.20;;;1.40;;
49502;SDS011;35409;48.776;9.204;2022-09-09T05:18:56;4.40;;;1.30;;
49502;SDS011;35409;48.776;9.204;2022-09-09T05:21:25;6.43;;;1.20;;
49502;SDS011;35409;48.776;9.204;2022-09-09T05:23:51;2.80;;;1.38;;
49502;SDS011;35409;48.776;9.204;2022-09-09T05:26:18;3.35;;;0.82;;
49502;SDS011;35409;48.776;9.204;2022-09-09T05:28:45;2.05;;;0.73;;
49502;SDS011;35409;48.776;9.204;2022-09-09T05:31:11;2.45;;;0.82;;
49502;SDS011;35409;48.776;9.204;2022-09-09T05:33:38;3.47;;;1.40;;
49502;SDS011;35409;48.776;9.204;2022-09-09T05:36:08;3.00;;;0.95;;
49502;SDS011;35409;48.776;9.204;2022-09-09T05:38:35;1.83;;;0.70;;
49502;SDS011;35409;48.776;9.204;2022-09-09T05:41:03;1.83;;;0.70;;
49502;SDS011;35409;48.776;9.204;2022-09-09T05:43:29;2.60;;;0.73;;
49502;SDS011;35409;48.776;9.204;2022-09-09T05:48:33;3.05;;;1.50;;
49502;SDS011;35409;48.776;9.204;2022-09-09T05:50:59;7.00;;;1.50;;
49502;SDS011;35409;48.776;9.204;2022-09-09T05:53:29;6.28;;;1.63;;
49502;SDS011;35409;48.776;9.204;2022-09-09T05:56:05;4.88;;;2.22;;
49502;SDS011;35409;48.776;9.204;2022-09-09T05:58:32;8.80;;;2.88;;
49502;SDS011;35409;48.776;9.204;2022-09-09T06:01:08;9.10;;;2.45;;
49502;SDS011;35409;48.776;9.204;2022-09-09T06:03:35;7.57;;;2.83;;
49502;SDS011;35409;48.776;9.204;2022-09-09T06:06:02;7.20;;;2.38;;
49502;SDS011;35409;48.776;9.204;2022-09-09T06:08:30;7.82;;;2.03;;
49502;SDS011;35409;48.776;9.204;2022-09-09T06:11:06;7.95;;;1.10;;
49502;SDS011;35409;48.776;9.204;2022-09-09T06:13:32;3.65;;;1.00;;
49502;SDS011;35409;48.776;9.204;2022-09-09T06:16:00;3.90;;;0.98;;
49502;SDS011;35409;48.776;9.204;2022-09-09T06:18:26;2.25;;;0.95;;
49502;SDS011;35409;48.776;9.204;2022-09-09T06:21:02;4.25;;;0.98;;
49502;SDS011;35409;48.776;9.204;2022-09-09T06:23:29;2.20;;;1.08;;
49502;SDS011;35409;48.776;9.204;2022-09-09T06:26:03;3.47;;;1.15;;
49502;SDS011;35409;48.776;9.204;2022-09-09T06:28:30;3.72;;;1.00;;
49502;SDS011;35409;48.776;9.204;2022-09-09T06:30:57;4.32;;;1.20;;
49502;SDS011;35409;48.776;9.204;2022-09-09T06:33:23;3.33;;;1.05;;
49502;SDS011;35409;48.776;9.204;2022-09-09T06:35:52;3.13;;;1.13;;
49502;SDS011;35409;48.776;9.204;2022-09-09T06:38:18;2.20;;;0.65;;
49502;SDS011;35409;48.776;9.204;2022-09-09T06:40:53;2.92;;;0.90;;
49502;SDS011;35409;48.776;9.204;2022-09-09T06:43:20;6.38;;;1.33;;
49502;SDS011;35409;48.776;9.204;2022-09-09T06:48:21;4.47;;;1.15;;
49502;SDS011;35409;48.776;9.204;2022-09-09T06:50:47;6.70;;;0.95;;
49502;SDS011;35409;48.776;9.204;2022-09-09T06:53:17;2.88;;;0.98;;
49502;SDS011;35409;48.776;9.204;2022-09-09T06:55:46;4.32;;;1.15;;
49502;SDS011;35409;48.776;9.204;2022-09-09T06:58:12;2.83;;;1.05;;
49502;SDS011;35409;48.776;9.204;2022-09-09T07:00:38;2.42;;;1.00;;
49502;SDS011;35409;48.776;9.204;2022-09-09T07:03:04;5.35;;;1.42;;
49502;SDS011;35409;48.776;9.204;2022-09-09T07:05:31;3.22;;;0.90;;
49502;SDS011;35409;48.776;9.204;2022-09-09T07:07:57;1.70;;;1.00;;
49502;SDS011;35409;48.776;9.204;2022-09-09T07:10:23;4.10;;;1.15;;
49502;SDS011;35409;48.776;9.204;2022-09-09T07:12:52;3.72;;;1.10;;
49502;SDS011;35409;48.776;9.204;2022-09-09T07:15:19;2.40;;;0.90;;
49502;SDS011;35409;48.776;9.204;2022-09-09T07:17:46;5.60;;;1.60;;
49502;SDS011;35409;48.776;9.204;2022-09-09T07:20:13;5.97;;;1.83;;
49502;SDS011;35409;48.776;9.204;2022-09-09T07:22:39;10.43;;;1.75;;
49502;SDS011;35409;48.776;9.204;2022-09-09T07:25:06;5.40;;;1.40;;
49502;SDS011;35409;48.776;9.204;2022-09-09T07:27:32;9.57;;;1.92;;
49502;SDS011;35409;48.776;9.204;2022-09-09T07:29:58;4.47;;;1.40;;
49502;SDS011;35409;48.776;9.204;2022-09-09T07:32:24;5.82;;;1.73;;
49502;SDS011;35409;48.776;9.204;2022-09-09T07:34:50;2.35;;;1.40;;
49502;SDS011;35409;48.776;9.204;2022-09-09T07:37:16;4.00;;;1.33;;
49502;SDS011;35409;48.776;9.204;2022-09-09T07:39:42;1.73;;;0.82;;
49502;SDS011;35409;48.776;9.204;2022-09-09T07:42:09;4.53;;;0.88;;
49502;SDS011;35409;48.776;9.204;2022-09-09T07:44:38;3.70;;;1.10;;
49502;SDS011;35409;48.776;9.204;2022-09-09T07:47:05;3.28;;;0.95;;
49502;SDS011;35409;48.776;9.204;2022-09-09T07:49:31;7.20;;;0.90;;
49502;SDS011;35409;48.776;9.204;2022-09-09T07:51:57;6.70;;;1.20;;
49502;SDS011;35409;48.776;9.204;2022-09-09T07:54:23;7.63;;;1.13;;
49502;SDS011;35409;48.776;9.204;2022-09-09T07:56:51;7.50;;;1.00;;
49502;SDS011;35409;48.776;9.204;2022-09-09T07:59:17;7.65;;;0.98;;
49502;SDS011;35409;48.776;9.204;2022-09-09T08:01:44;4.93;;;1.30;;
49502;SDS011;35409;48.776;9.204;2022-09-09T08:04:15;4.03;;;0.93;;
49502;SDS011;35409;48.776;9.204;2022-09-09T08:06:51;2.60;;;0.98;;
49502;SDS011;35409;48.776;9.204;2022-09-09T08:09:17;6.80;;;1.33;;
49502;SDS011;35409;48.776;9.204;2022-09-09T08:11:44;3.05;;;1.05;;
49502;SDS011;35409;48.776;9.204;2022-09-09T08:14:10;4.68;;;0.90;;
49502;SDS011;35409;48.776;9.204;2022-09-09T08:16:38;6.70;;;1.55;;
49502;SDS011;35409;48.776;9.204;2022-09-09T08:19:05;5.47;;;1.20;;
49502;SDS011;35409;48.776;9.204;2022-09-09T08:21:33;7.28;;;1.50;;
49502;SDS011;35409;48.776;9.204;2022-09-09T08:23:59;5.30;;;1.10;;
49502;SDS011;35409;48.776;9.204;2022-09-09T08:26:27;3.55;;;1.30;;
49502;SDS011;35409;48.776;9.204;2022-09-09T08:28:54;4.22;;;1.15;;
49502;SDS011;35409;48.776;9.204;2022-09-09T08:31:25;5.43;;;1.17;;
49502;SDS011;35409;48.776;9.204;2022-09-09T08:33:53;3.03;;;0.90;;
49502;SDS011;35409;48.776;9.204;2022-09-09T08:36:20;4.63;;;1.60;;
49502;SDS011;35409;48.776;9.204;2022-09-09T08:38:50;2.90;;;1.05;;
49502;SDS011;35409;48.776;9.204;2022-09-09T08:46:31;3.60;;;1.10;;
49502;SDS011;35409;48.776;9.204;2022-09-09T08:51:45;5.57;;;0.85;;
49502;SDS011;35409;48.776;9.204;2022-09-09T08:54:12;5.25;;;1.35;;
49502;SDS011;35409;48.776;9.204;2022-09-09T08:56:38;8.30;;;1.42;;
49502;SDS011;35409;48.776;9.204;2022-09-09T08:59:04;5.72;;;1.20;;
49502;SDS011;35409;48.776;9.204;2022-09-09T09:09:25;4.55;;;1.10;;
49502;SDS011;35409;48.776;9.204;2022-09-09T09:11:57;5.72;;;0.90;;
49502;SDS011;35409;48.776;9.204;2022-09-09T09:14:27;7.47;;;1.70;;
49502;SDS011;35409;48.776;9.204;2022-09-09T09:16:59;4.40;;;1.40;;
49502;SDS011;35409;48.776;9.204;2022-09-09T09:22:10;5.10;;;1.25;;
49502;SDS011;35409;48.776;9.204;2022-09-09T09:27:11;2.30;;;1.10;;
49502;SDS011;35409;48.776;9.204;2022-09-09T09:29:38;4.13;;;1.00;;
49502;SDS011;35409;48.776;9.204;2022-09-09T09:32:05;4.82;;;1.58;;
49502;SDS011;35409;48.776;9.204;2022-09-09T09:37:01;5.55;;;1.27;;
49502;SDS011;35409;48.776;9.204;2022-09-09T09:39:28;2.42;;;0.88;;
49502;SDS011;35409;48.776;9.204;2022-09-09T09:41:55;3.90;;;1.00;;
49502;SDS011;35409;48.776;9.204;2022-09-09T09:44:29;4.18;;;0.93;;
49502;SDS011;35409;48.776;9.204;2022-09-09T09:47:06;3.40;;;1.00;;
49502;SDS011;35409;48.776;9.204;2022-09-09T09:49:32;2.60;;;0.80;;
49502;SDS011;35409;48.776;9.204;2022-09-09T09:52:02;2.85;;;0.60;;
49502;SDS011;35409;48.776;9.204;2022-09-09T09:54:28;2.63;;;0.70;;
49502;SDS011;35409;48.776;9.204;2022-09-09T09:56:55;2.78;;;0.85;;
49502;SDS011;35409;48.776;9.204;2022-09-09T10:01:53;1.38;;;0.60;;
49502;SDS011;35409;48.776;9.204;2022-09-09T10:04:20;2.28;;;0.50;;
49502;SDS011;35409;48.776;9.204;2022-09-09T10:06:48;1.77;;;0.68;;
49502;SDS011;35409;48.776;9.204;2022-09-09T10:09:29;3.63;;;0.75;;
49502;SDS011;35409;48.776;9.204;2022-09-09T10:12:18;2.88;;;0.80;;
49502;SDS011;35409;48.776;9.204;2022-09-09T10:17:22;6.72;;;1.02;;
49502;SDS011;35409;48.776;9.204;2022-09-09T10:20:00;2.70;;;1.00;;
49502;SDS011;35409;48.776;9.204;2022-09-09T10:22:33;4.07;;;1.13;;
49502;SDS011;35409;48.776;9.204;2022-09-09T10:25:11;3.63;;;1.10;;
49502;SDS011;35409;48.776;9.204;2022-09-09T10:27:46;4.10;;;1.02;;
49502;SDS011;35409;48.776;9.204;2022-09-09T10:30:16;6.50;;;1.15;;
49502;SDS011;35409;48.776;9.204;2022-09-09T10:32:52;1.98;;;0.80;;
49502;SDS011;35409;48.776;9.204;2022-09-09T10:35:24;3.20;;;1.00;;
49502;SDS011;35409;48.776;9.204;2022-09-09T10:42:46;4.88;;;1.10;;
49502;SDS011;35409;48.776;9.204;2022-09-09T10:45:18;2.17;;;1.02;;
49502;SDS011;35409;48.776;9.204;2022-09-09T10:48:05;2.17;;;0.90;;
49502;SDS011;35409;48.776;9.204;2022-09-09T10:55:48;2.90;;;1.10;;
49502;SDS011;35409;48.776;9.204;2022-09-09T10:58:20;1.75;;;0.90;;
49502;SDS011;35409;48.776;9.204;2022-09-09T11:00:59;1.80;;;0.90;;
49502;SDS011;35409;48.776;9.204;2022-09-09T11:03:30;4.32;;;1.10;;
49502;SDS011;35409;48.776;9.204;2022-09-09T11:06:05;6.50;;;1.38;;
49502;SDS011;35409;48.776;9.204;2022-09-09T11:08:33;1.90;;;0.80;;
49502;SDS011;35409;48.776;9.204;2022-09-09T11:11:04;5.35;;;1.30;;
49502;SDS011;35409;48.776;9.204;2022-09-09T11:13:44;7.55;;;1.13;;
49502;SDS011;35409;48.776;9.204;2022-09-09T11:18:39;7.03;;;1.10;;
49502;SDS011;35409;48.776;9.204;2022-09-09T11:21:08;5.35;;;1.38;;
49502;SDS011;35409;48.776;9.204;2022-09-09T11:23:39;4.53;;;1.00;;
49502;SDS011;35409;48.776;9.204;2022-09-09T11:26:06;4.50;;;0.93;;
49502;SDS011;35409;48.776;9.204;2022-09-09T11:36:38;2.60;;;0.65;;
49502;SDS011;35409;48.776;9.204;2022-09-09T11:39:30;5.22;;;0.70;;
49502;SDS011;35409;48.776;9.204;2022-09-09T11:42:35;7.05;;;1.00;;
49502;SDS011;35409;48.776;9.204;2022-09-09T11:44:54;3.75;;;0.90;;
49502;SDS011;35409;48.776;9.204;2022-09-09T11:47:26;6.85;;;0.98;;
49502;SDS011;35409;48.776;9.204;2022-09-09T11:49:55;2.85;;;0.70;;
49502;SDS011;35409;48.776;9.204;2022-09-09T11:52:23;2.63;;;0.63;;
49502;SDS011;35409;48.776;9.204;2022-09-09T11:54:50;1.42;;;0.57;;
49502;SDS011;35409;48.776;9.204;2022-09-09T11:57:24;2.38;;;0.50;;
49502;SDS011;35409;48.776;9.204;2022-09-09T11:59:51;4.63;;;0.73;;
49502;SDS011;35409;48.776;9.204;2022-09-09T12:04:44;3.35;;;0.68;;
49502;SDS011;35409;48.776;9.204;2022-09-09T12:10:28;2.25;;;0.35;;
49502;SDS011;35409;48.776;9.204;2022-09-09T12:12:55;0.52;;;0.50;;
49502;SDS011;35409;48.776;9.204;2022-09-09T12:15:25;0.40;;;0.30;;
49502;SDS011;35409;48.776;9.204;2022-09-09T12:17:54;0.68;;;0.38;;
49502;SDS011;35409;48.776;9.204;2022-09-09T12:25:48;3.30;;;0.57;;
49502;SDS011;35409;48.776;9.204;2022-09-09T12:33:20;0.95;;;0.60;;
49502;SDS011;35409;48.776;9.204;2022-09-09T12:35:50;1.63;;;0.60;;
49502;SDS011;35409;48.776;9.204;2022-09-09T12:38:29;3.08;;;0.63;;
49502;SDS011;35409;48.776;9.204;2022-09-09T12:40:59;2.28;;;0.80;;
49502;SDS011;35409;48.776;9.204;2022-09-09T12:43:25;1.80;;;0.75;;
49502;SDS011;35409;48.776;9.204;2022-09-09T12:45:53;1.90;;;0.82;;
49502;SDS011;35409;48.776;9.204;2022-09-09T12:48:29;1.33;;;0.68;;
49502;SDS011;35409;48.776;9.204;2022-09-09T12:51:18;2.55;;;0.60;;
49502;SDS011;35409;48.776;9.204;2022-09-09T12:53:50;2.53;;;0.60;;
49502;SDS011;35409;48.776;9.204;2022-09-09T12:56:23;2.47;;;0.63;;
49502;SDS011;35409;48.776;9.204;2022-09-09T12:58:52;1.63;;;0.82;;
49502;SDS011;35409;48.776;9.204;2022-09-09T13:01:20;2.33;;;0.70;;
49502;SDS011;35409;48.776;9.204;2022-09-09T13:03:46;1.75;;;0.57;;
49502;SDS011;35409;48.776;9.204;2022-09-09T13:06:22;1.85;;;0.88;;
49502;SDS011;35409;48.776;9.204;2022-09-09T13:08:52;1.67;;;0.60;;
49502;SDS011;35409;48.776;9.204;2022-09-09T13:11:23;2.03;;;0.68;;
49502;SDS011;35409;48.776;9.204;2022-09-09T13:13:59;1.33;;;0.55;;
49502;SDS011;35409;48.776;9.204;2022-09-09T13:19:01;2.17;;;0.65;;
49502;SDS011;35409;48.776;9.204;2022-09-09T13:21:35;2.13;;;0.68;;
49502;SDS011;35409;48.776;9.204;2022-09-09T13:24:03;2.08;;;0.80;;
49502;SDS011;35409;48.776;9.204;2022-09-09T13:26:32;3.33;;;0.60;;
49502;SDS011;35409;48.776;9.204;2022-09-09T13:29:18;2.90;;;0.63;;
49502;SDS011;35409;48.776;9.204;2022-09-09T13:31:44;3.67;;;0.73;;
49502;SDS011;35409;48.776;9.204;2022-09-09T13:34:27;4.38;;;0.70;;
49502;SDS011;35409;48.776;9.204;2022-09-09T13:37:01;2.00;;;0.98;;
49502;SDS011;35409;48.776;9.204;2022-09-09T13:39:30;1.75;;;0.55;;
49502;SDS011;35409;48.776;9.204;2022-09-09T13:41:59;5.80;;;0.98;;
49502;SDS011;35409;48.776;9.204;2022-09-09T13:44:27;1.67;;;0.60;;
49502;SDS011;35409;48.776;9.204;2022-09-09T13:47:17;3.50;;;1.13;;
49502;SDS011;35409;48.776;9.204;2022-09-09T13:49:44;1.77;;;0.43;;
49502;SDS011;35409;48.776;9.204;2022-09-09T13:52:12;0.98;;;0.65;;
49502;SDS011;35409;48.776;9.204;2022-09-09T13:54:40;6.80;;;0.50;;
49502;SDS011;35409;48.776;9.204;2022-09-09T13:57:16;2.28;;;0.40;;
49502;SDS011;35409;48.776;9.204;2022-09-09T13:59:44;1.33;;;0.45;;
49502;SDS011;35409;48.776;9.204;2022-09-09T14:02:10;2.60;;;0.70;;
49502;SDS011;35409;48.776;9.204;2022-09-09T14:04:36;4.28;;;0.68;;
49502;SDS011;35409;48.776;9.204;2022-09-09T14:07:01;2.88;;;0.85;;
49502;SDS011;35409;48.776;9.204;2022-09-09T14:09:28;1.95;;;0.60;;
49502;SDS011;35409;48.776;9.204;2022-09-09T14:11:53;3.35;;;0.90;;
49502;SDS011;35409;48.776;9.204;2022-09-09T14:14:20;2.28;;;0.95;;
49502;SDS011;35409;48.776;9.204;2022-09-09T14:16:46;1.73;;;0.60;;
49502;SDS011;35409;48.776;9.204;2022-09-09T14:19:12;5.70;;;0.90;;
49502;SDS011;35409;48.776;9.204;2022-09-09T14:21:37;3.35;;;0.70;;
49502;SDS011;35409;48.776;9.204;2022-09-09T14:24:03;1.10;;;0.50;;
49502;SDS011;35409;48.776;9.204;2022-09-09T14:26:29;3.95;;;1.27;;
49502;SDS011;35409;48.776;9.204;2022-09-09T14:28:55;3.55;;;0.82;;
49502;SDS011;35409;48.776;9.204;2022-09-09T14:31:21;3.00;;;0.95;;
49502;SDS011;35409;48.776;9.204;2022-09-09T14:33:48;1.95;;;0.80;;
49502;SDS011;35409;48.776;9.204;2022-09-09T14:36:13;1.83;;;0.85;;
49502;SDS011;35409;48.776;9.204;2022-09-09T14:38:40;2.28;;;0.60;;
49502;SDS011;35409;48.776;9.204;2022-09-09T14:41:06;1.92;;;0.60;;
49502;SDS011;35409;48.776;9.204;2022-09-09T14:43:37;1.45;;;0.32;;
49502;SDS011;35409;48.776;9.204;2022-09-09T14:46:07;4.13;;;0.80;;
49502;SDS011;35409;48.776;9.204;2022-09-09T14:48:34;1.92;;;0.60;;
49502;SDS011;35409;48.776;9.204;2022-09-09T14:51:10;2.33;;;0.70;;
49502;SDS011;35409;48.776;9.204;2022-09-09T14:53:38;0.80;;;0.70;;
49502;SDS011;35409;48.776;9.204;2022-09-09T14:56:05;4.30;;;0.82;;
49502;SDS011;35409;48.776;9.204;2022-09-09T14:58:33;1.05;;;0.40;;
49502;SDS011;35409;48.776;9.204;2022-09-09T15:01:06;3.92;;;0.70;;
49502;SDS011;35409;48.776;9.204;2022-09-09T15:03:35;1.25;;;0.47;;
49502;SDS011;35409;48.776;9.204;2022-09-09T15:06:05;8.13;;;1.33;;
49502;SDS011;35409;48.776;9.204;2022-09-09T15:08:33;3.95;;;0.40;;
49502;SDS011;35409;48.776;9.204;2022-09-09T15:11:03;3.05;;;0.80;;
49502;SDS011;35409;48.776;9.204;2022-09-09T15:13:32;2.70;;;0.60;;
49502;SDS011;35409;48.776;9.204;2022-09-09T15:16:05;3.58;;;0.60;;
49502;SDS011;35409;48.776;9.204;2022-09-09T15:18:32;2.95;;;0.60;;
49502;SDS011;35409;48.776;9.204;2022-09-09T15:20:59;1.77;;;0.50;;
49502;SDS011;35409;48.776;9.204;2022-09-09T15:23:28;2.00;;;0.52;;
49502;SDS011;35409;48.776;9.204;2022-09-09T15:25:56;1.65;;;0.60;;
49502;SDS011;35409;48.776;9.204;2022-09-09T15:28:22;1.13;;;0.45;;
49502;SDS011;35409;48.776;9.204;2022-09-09T15:30:48;3.25;;;0.75;;
49502;SDS011;35409;48.776;9.204;2022-09-09T15:33:16;2.92;;;0.70;;
49502;SDS011;35409;48.776;9.204;2022-09-09T15:35:43;1.67;;;0.90;;
49502;SDS011;35409;48.776;9.204;2022-09-09T15:38:08;2.97;;;1.10;;
49502;SDS011;35409;48.776;9.204;2022-09-09T15:40:34;3.38;;;1.23;;
49502;SDS011;35409;48.776;9.204;2022-09-09T15:42:59;1.55;;;0.73;;
49502;SDS011;35409;48.776;9.204;2022-09-09T15:45:25;3.22;;;0.70;;
49502;SDS011;35409;48.776;9.204;2022-09-09T15:47:57;2.53;;;0.70;;
49502;SDS011;35409;48.776;9.204;2022-09-09T15:50:23;4.50;;;1.00;;
49502;SDS011;35409;48.776;9.204;2022-09-09T15:52:48;2.13;;;0.80;;
49502;SDS011;35409;48.776;9.204;2022-09-09T15:55:14;2.47;;;0.90;;
49502;SDS011;35409;48.776;9.204;2022-09-09T15:57:40;2.95;;;0.80;;
49502;SDS011;35409;48.776;9.204;2022-09-09T16:00:05;4.55;;;0.88;;
49502;SDS011;35409;48.776;9.204;2022-09-09T16:02:32;2.53;;;0.75;;
49502;SDS011;35409;48.776;9.204;2022-09-09T16:04:58;1.45;;;0.50;;
49502;SDS011;35409;48.776;9.204;2022-09-09T16:07:23;3.22;;;1.00;;
49502;SDS011;35409;48.776;9.204;2022-09-09T16:09:49;10.02;;;1.20;;
49502;SDS011;35409;48.776;9.204;2022-09-09T16:12:17;2.50;;;0.90;;
49502;SDS011;35409;48.776;9.204;2022-09-09T16:14:43;2.65;;;0.75;;
49502;SDS011;35409;48.776;9.204;2022-09-09T16:17:10;2.88;;;0.98;;
49502;SDS011;35409;48.776;9.204;2022-09-09T16:19:36;3.45;;;1.27;;
49502;SDS011;35409;48.776;9.204;2022-09-09T16:22:02;2.35;;;0.93;;
49502;SDS011;35409;48.776;9.204;2022-09-09T16:24:29;1.90;;;0.60;;
49502;SDS011;35409;48.776;9.204;2022-09-09T16:26:54;6.07;;;1.00;;
49502;SDS011;35409;48.776;9.204;2022-09-09T16:29:20;2.28;;;0.90;;
49502;SDS011;35409;48.776;9.204;2022-09-09T16:31:47;1.15;;;0.70;;
49502;SDS011;35409;48.776;9.204;2022-09-09T16:34:15;3.13;;;0.95;;
49502;SDS011;35409;48.776;9.204;2022-09-09T16:36:42;1.80;;;0.95;;
49502;SDS011;35409;48.776;9.204;2022-09-09T16:39:10;2.28;;;0.70;;
49502;SDS011;35409;48.776;9.204;2022-09-09T16:41:37;1.75;;;0.60;;
49502;SDS011;35409;48.776;9.204;2022-09-09T16:44:05;3.75;;;1.05;;
49502;SDS011;35409;48.776;9.204;2022-09-09T16:46:33;2.78;;;0.65;;
49502;SDS011;35409;48.776;9.204;2022-09-09T16:49:04;1.52;;;0.65;;
49502;SDS011;35409;48.776;9.204;2022-09-09T16:51:33;1.67;;;0.55;;
49502;SDS011;35409;48.776;9.204;2022-09-09T16:54:06;3.20;;;0.50;;
49502;SDS011;35409;48.776;9.204;2022-09-09T16:56:34;0.93;;;0.40;;
49502;SDS011;35409;48.776;9.204;2022-09-09T16:59:03;1.05;;;0.60;;